Time;durP1;ratioP1;P1;durP2;ratioP2;P2;SDS_P1;SDS_P2;PMS_P1;PMS_P2;Temp;Humidity;BMP_temperature;BMP_pressure;BME280_temperature;BME280_humidity;BME280_pressure;Samples;Min_cycle;Max_cycle;Signal;HPM_P1;HPM_P2
2024/02/20 05:31:56;;;;;;;0.10;0.10;;;10.30;83.00;;;;;;6152286;23;20091;-76
2024/02/20 05:34:21;;;;;;;0.10;0.10;;;10.30;83.20;;;;;;6159158;23;20005;-74
2024/02/20 05:36:47;;;;;;;0.10;0.10;;;10.30;83.20;;;;;;6159696;23;20006;-73
2024/02/20 05:39:12;;;;;;;0.10;0.10;;;10.20;83.20;;;;;;6160161;23;20008;-74
2024/02/20 05:41:38;;;;;;;0.10;0.10;;;10.30;83.20;;;;;;6159890;23;19997;-74
2024/02/20 05:44:04;;;;;;;0.10;0.10;;;10.30;83.20;;;;;;6159849;23;20025;-74
2024/02/20 05:46:32;;;;;;;0.10;0.10;;;10.30;83.20;;;;;;6133762;23;20072;-74
2024/02/20 05:48:58;;;;;;;0.10;0.10;;;10.30;83.20;;;;;;6160024;23;20107;-74
2024/02/20 05:51:25;;;;;;;0.10;0.10;;;10.30;83.20;;;;;;6160259;23;20006;-75
2024/02/20 05:53:52;;;;;;;0.10;0.10;;;10.40;83.20;;;;;;6159713;23;20005;-74
2024/02/20 05:56:19;;;;;;;0.10;0.10;;;10.40;83.00;;;;;;6159779;23;20006;-74
2024/02/20 05:58:44;;;;;;;0.10;0.10;;;10.30;83.00;;;;;;6159926;23;20006;-73
2024/02/20 06:01:11;;;;;;;0.10;0.10;;;10.30;83.10;;;;;;6158987;23;20008;-78
2024/02/20 06:03:37;;;;;;;0.10;0.10;;;10.40;83.20;;;;;;6133080;23;20013;-75
2024/02/20 06:06:07;;;;;;;0.10;0.10;;;10.40;83.20;;;;;;6159893;23;20057;-75
2024/02/20 06:08:40;;;;;;;0.10;0.10;;;10.40;83.20;;;;;;6158129;23;20008;-75
2024/02/20 06:11:06;;;;;;;0.10;0.10;;;10.40;83.30;;;;;;6159146;23;20102;-76
2024/02/20 06:13:31;;;;;;;0.10;0.10;;;10.40;83.30;;;;;;6133060;23;20001;-76
2024/02/20 06:15:57;;;;;;;0.10;0.10;;;10.40;83.30;;;;;;6158934;23;20049;-77
2024/02/20 06:18:22;;;;;;;0.13;0.13;;;10.30;83.30;;;;;;6159491;23;20438;-74
2024/02/20 06:20:49;;;;;;;0.10;0.10;;;10.40;83.20;;;;;;6159552;23;20005;-76
2024/02/20 06:23:14;;;;;;;0.10;0.10;;;10.40;83.20;;;;;;6158965;23;20005;-76
2024/02/20 06:25:42;;;;;;;0.10;0.10;;;10.40;83.30;;;;;;6159588;23;20012;-75
2024/02/20 06:28:08;;;;;;;0.10;0.10;;;10.40;83.30;;;;;;6158651;23;20055;-76
2024/02/20 06:30:34;;;;;;;0.10;0.10;;;10.30;83.50;;;;;;6159051;23;20104;-76
2024/02/20 06:33:00;;;;;;;0.10;0.10;;;10.40;83.50;;;;;;6158363;23;20017;-78
2024/02/20 06:35:26;;;;;;;0.10;0.10;;;10.30;83.40;;;;;;6132309;23;20006;-77
2024/02/20 06:37:51;;;;;;;0.10;0.10;;;10.30;83.50;;;;;;6159014;23;20031;-77
2024/02/20 06:40:17;;;;;;;0.10;0.10;;;10.30;83.60;;;;;;6133350;23;20002;-77
2024/02/20 06:42:42;;;;;;;0.10;0.10;;;10.30;83.80;;;;;;6131380;23;20053;-77
2024/02/20 06:45:08;;;;;;;0.10;0.10;;;10.30;83.70;;;;;;6159239;23;20338;-77
2024/02/20 06:47:34;;;;;;;0.10;0.10;;;10.30;83.60;;;;;;6158839;23;20016;-76
2024/02/20 06:49:59;;;;;;;0.10;0.10;;;10.30;83.70;;;;;;6158886;23;20008;-76
2024/02/20 06:52:26;;;;;;;0.10;0.10;;;10.30;83.80;;;;;;6158737;23;20006;-77
2024/02/20 06:54:51;;;;;;;0.10;0.10;;;10.40;83.80;;;;;;6159234;23;20029;-76
2024/02/20 06:57:17;;;;;;;0.10;0.10;;;10.30;83.90;;;;;;6133077;23;20013;-77
2024/02/20 06:59:43;;;;;;;0.10;0.10;;;10.20;84.00;;;;;;6131910;23;20037;-76
2024/02/20 07:02:08;;;;;;;0.10;0.10;;;10.20;84.00;;;;;;6159059;23;20438;-76
2024/02/20 07:04:40;;;;;;;0.10;0.10;;;10.30;84.00;;;;;;6159383;23;20009;-76
2024/02/20 07:07:06;;;;;;;0.10;0.10;;;10.20;84.30;;;;;;6159074;23;20029;-76
2024/02/20 07:09:31;;;;;;;0.10;0.10;;;10.20;84.10;;;;;;6159265;23;20008;-76
2024/02/20 07:11:57;;;;;;;0.10;0.10;;;10.20;84.00;;;;;;6159319;23;20081;-77
2024/02/20 07:14:23;;;;;;;0.10;0.10;;;10.20;83.90;;;;;;6133550;23;20382;-76
2024/02/20 07:16:49;;;;;;;0.10;0.10;;;10.20;83.90;;;;;;6132607;23;20005;-76
2024/02/20 07:19:14;;;;;;;0.10;0.10;;;10.20;83.80;;;;;;6133519;23;20016;-77
2024/02/20 07:21:40;;;;;;;0.10;0.10;;;10.10;83.70;;;;;;6159297;23;20053;-76
2024/02/20 07:24:06;;;;;;;0.10;0.10;;;10.00;83.90;;;;;;6132751;23;20009;-76
2024/02/20 07:26:32;;;;;;;0.10;0.10;;;10.00;84.00;;;;;;6133242;23;20133;-76
2024/02/20 07:28:58;;;;;;;0.10;0.10;;;9.90;84.20;;;;;;6158799;23;20001;-76
2024/02/20 07:31:25;;;;;;;0.10;0.10;;;10.00;84.10;;;;;;6143902;23;20025;-76
2024/02/20 07:33:52;;;;;;;0.10;0.10;;;10.00;84.00;;;;;;6159391;23;20002;-76
2024/02/20 07:36:17;;;;;;;0.10;0.10;;;10.00;84.10;;;;;;6158673;23;20005;-76
2024/02/20 07:38:43;;;;;;;0.10;0.10;;;10.00;84.10;;;;;;6159057;23;20004;-76
2024/02/20 07:41:09;;;;;;;0.10;0.10;;;10.00;83.80;;;;;;6157499;23;20445;-77
2024/02/20 07:43:36;;;;;;;0.10;0.10;;;10.20;83.70;;;;;;6157469;23;20005;-76
2024/02/20 07:46:02;;;;;;;0.10;0.10;;;10.20;83.40;;;;;;6158922;23;20050;-76
2024/02/20 07:48:28;;;;;;;0.10;0.10;;;10.20;82.90;;;;;;6159185;23;20056;-76
2024/02/20 07:50:53;;;;;;;0.10;0.10;;;10.20;83.20;;;;;;6159054;23;20001;-76
2024/02/20 07:53:20;;;;;;;0.10;0.10;;;10.20;83.30;;;;;;6157565;23;20001;-76
2024/02/20 07:55:45;;;;;;;0.10;0.10;;;10.30;83.20;;;;;;6159031;23;20096;-76
2024/02/20 07:58:11;;;;;;;0.20;0.20;;;10.30;82.80;;;;;;6157412;23;20009;-77
2024/02/20 08:00:36;;;;;;;0.10;0.10;;;10.40;82.80;;;;;;6159065;23;20454;-77
2024/02/20 08:03:02;;;;;;;0.17;0.17;;;10.50;82.60;;;;;;6158932;23;19999;-77
2024/02/20 08:05:28;;;;;;;0.10;0.10;;;10.70;82.40;;;;;;6159604;23;20005;-76
2024/02/20 08:07:54;;;;;;;0.10;0.10;;;10.70;81.90;;;;;;6158938;23;20013;-76
2024/02/20 08:10:20;;;;;;;0.10;0.10;;;10.80;82.10;;;;;;6159032;23;20001;-77
2024/02/20 08:12:45;;;;;;;0.10;0.10;;;11.00;81.40;;;;;;6157084;23;20064;-77
2024/02/20 08:15:11;;;;;;;0.10;0.10;;;11.00;81.10;;;;;;6159140;23;20010;-76
2024/02/20 08:17:37;;;;;;;0.10;0.10;;;10.90;81.10;;;;;;6158671;23;20334;-76
2024/02/20 08:20:06;;;;;;;0.10;0.10;;;11.00;81.30;;;;;;6157755;23;20311;-77
2024/02/20 08:22:31;;;;;;;0.10;0.10;;;11.10;80.70;;;;;;6159134;23;20005;-77
2024/02/20 08:24:57;;;;;;;0.20;0.20;;;11.20;80.40;;;;;;6158803;23;20331;-77
2024/02/20 08:27:24;;;;;;;0.20;0.20;;;11.50;79.50;;;;;;6158956;23;20012;-76
2024/02/20 08:29:50;;;;;;;0.20;0.20;;;11.70;79.50;;;;;;6159109;23;20024;-76
2024/02/20 08:32:16;;;;;;;0.10;0.10;;;11.90;78.40;;;;;;6158773;23;20444;-77
2024/02/20 08:34:42;;;;;;;0.20;0.20;;;12.20;77.70;;;;;;6158217;23;20055;-76
2024/02/20 08:37:08;;;;;;;0.60;0.60;;;12.30;77.40;;;;;;6158908;23;20012;-77
2024/02/20 08:39:34;;;;;;;0.20;0.20;;;12.90;76.70;;;;;;6158794;23;20064;-76
2024/02/20 08:42:00;;;;;;;0.10;0.10;;;13.30;74.70;;;;;;6158646;23;20120;-77
2024/02/20 08:44:26;;;;;;;0.20;0.20;;;13.10;73.90;;;;;;6158998;23;19998;-76
2024/02/20 08:46:51;;;;;;;0.20;0.20;;;12.90;74.70;;;;;;6158433;23;20056;-76
2024/02/20 08:49:17;;;;;;;0.20;0.20;;;12.80;74.80;;;;;;6158718;23;20044;-77
2024/02/20 08:51:43;;;;;;;0.30;0.30;;;12.60;75.20;;;;;;6159267;23;20013;-77
2024/02/20 08:54:09;;;;;;;0.20;0.20;;;12.90;75.40;;;;;;6132887;23;20006;-77
2024/02/20 08:56:35;;;;;;;0.20;0.20;;;13.30;74.20;;;;;;6159256;23;20016;-76
2024/02/20 08:59:01;;;;;;;0.30;0.30;;;13.20;73.80;;;;;;6160556;23;20334;-76
2024/02/20 09:01:26;;;;;;;0.20;0.20;;;13.20;74.10;;;;;;6160268;23;20444;-77
2024/02/20 09:03:54;;;;;;;0.10;0.10;;;13.00;73.10;;;;;;6134493;23;20002;-76
2024/02/20 09:06:19;;;;;;;0.10;0.10;;;12.70;74.30;;;;;;6161057;23;20025;-76
2024/02/20 09:08:45;;;;;;;0.10;0.10;;;12.50;75.20;;;;;;6160076;23;20052;-76
2024/02/20 09:11:11;;;;;;;0.10;0.10;;;12.30;75.30;;;;;;6160627;23;20001;-76
2024/02/20 09:13:38;;;;;;;0.10;0.10;;;12.20;75.80;;;;;;6160256;23;20012;-76
2024/02/20 09:16:04;;;;;;;0.10;0.10;;;11.90;75.90;;;;;;6160070;23;20012;-76
2024/02/20 09:18:37;;;;;;;0.10;0.10;;;11.70;76.70;;;;;;6134309;23;20001;-77
2024/02/20 09:21:08;;;;;;;0.10;0.10;;;11.60;77.50;;;;;;6160386;23;20007;-76
2024/02/20 09:23:37;;;;;;;0.10;0.10;;;11.60;77.50;;;;;;6160171;23;20052;-76
2024/02/20 09:26:05;;;;;;;0.10;0.10;;;11.70;77.20;;;;;;6160534;23;19997;-77
2024/02/20 09:28:31;;;;;;;0.10;0.10;;;11.60;77.20;;;;;;6134218;23;20021;-76
2024/02/20 09:30:56;;;;;;;0.10;0.10;;;11.50;77.70;;;;;;6160168;23;20017;-76
2024/02/20 09:33:22;;;;;;;0.10;0.10;;;11.40;77.80;;;;;;6160623;23;20013;-76
2024/02/20 09:35:48;;;;;;;0.10;0.10;;;11.40;78.20;;;;;;6160015;23;20006;-77
2024/02/20 09:38:16;;;;;;;0.10;0.10;;;11.40;77.90;;;;;;6160376;23;20032;-77
2024/02/20 09:40:42;;;;;;;0.10;0.10;;;11.40;78.40;;;;;;6159800;23;20024;-77
2024/02/20 09:43:09;;;;;;;0.10;0.10;;;11.40;78.30;;;;;;6160083;23;20041;-77
2024/02/20 09:45:39;;;;;;;0.10;0.10;;;11.40;78.50;;;;;;6160087;23;20013;-76
2024/02/20 09:48:07;;;;;;;0.10;0.10;;;11.30;78.40;;;;;;6159481;23;20016;-77
2024/02/20 09:50:35;;;;;;;0.10;0.10;;;11.30;78.50;;;;;;6160238;23;20002;-76
2024/02/20 09:53:01;;;;;;;0.10;0.10;;;11.30;78.30;;;;;;6133564;23;20081;-76
2024/02/20 09:55:27;;;;;;;0.10;0.10;;;11.30;78.30;;;;;;6160005;23;20012;-76
2024/02/20 09:57:54;;;;;;;0.10;0.10;;;11.20;78.10;;;;;;6134208;23;20010;-76
2024/02/20 10:00:20;;;;;;;0.10;0.10;;;11.00;78.50;;;;;;6159971;23;20005;-77
2024/02/20 10:02:46;;;;;;;0.20;0.20;;;10.90;78.90;;;;;;6159723;23;20327;-77
2024/02/20 10:05:15;;;;;;;0.10;0.10;;;11.00;78.70;;;;;;6159855;23;20426;-77
2024/02/20 10:07:45;;;;;;;0.10;0.10;;;10.90;79.10;;;;;;6133479;23;20009;-76
2024/02/20 10:10:15;;;;;;;0.10;0.10;;;11.00;79.00;;;;;;6133651;23;20016;-76
2024/02/20 10:12:40;;;;;;;0.10;0.10;;;11.10;78.90;;;;;;6160108;23;20072;-77
2024/02/20 10:15:08;;;;;;;0.10;0.10;;;10.90;78.90;;;;;;6159650;23;20002;-76
2024/02/20 10:17:35;;;;;;;0.20;0.20;;;10.80;79.60;;;;;;6160001;23;20013;-76
2024/02/20 10:20:12;;;;;;;0.10;0.10;;;10.90;79.20;;;;;;6159562;23;19997;-76
2024/02/20 10:22:42;;;;;;;0.10;0.10;;;11.00;79.10;;;;;;6159889;23;20303;-76
2024/02/20 10:25:12;;;;;;;0.10;0.10;;;10.90;78.60;;;;;;6133522;23;20009;-76
2024/02/20 10:27:38;;;;;;;0.10;0.10;;;10.80;78.90;;;;;;6133430;23;20009;-77
2024/02/20 10:30:05;;;;;;;0.20;0.20;;;10.70;79.60;;;;;;6160023;23;20001;-76
2024/02/20 10:32:36;;;;;;;0.10;0.10;;;10.80;79.40;;;;;;6159777;23;20025;-76
2024/02/20 10:35:07;;;;;;;0.20;0.20;;;10.90;78.70;;;;;;6159734;23;20080;-77
2024/02/20 10:37:33;;;;;;;0.10;0.10;;;11.00;77.90;;;;;;6159501;23;20006;-77
2024/02/20 10:40:07;;;;;;;0.20;0.20;;;11.20;77.50;;;;;;6159197;23;20136;-76
2024/02/20 10:42:37;;;;;;;0.10;0.10;;;11.50;76.80;;;;;;6160014;23;20005;-77
2024/02/20 10:45:08;;;;;;;0.10;0.10;;;11.70;76.60;;;;;;6133189;23;20005;-77
2024/02/20 10:47:41;;;;;;;0.10;0.10;;;11.70;76.00;;;;;;6133736;23;20092;-77
2024/02/20 10:50:08;;;;;;;0.20;0.20;;;11.70;76.40;;;;;;6133469;23;20088;-76
2024/02/20 10:52:38;;;;;;;0.20;0.20;;;11.90;76.40;;;;;;6159323;23;20517;-76
2024/02/20 10:55:08;;;;;;;0.10;0.10;;;12.10;75.50;;;;;;6159966;23;20093;-76
2024/02/20 10:57:37;;;;;;;0.10;0.10;;;12.00;75.30;;;;;;6159394;23;20006;-76
2024/02/20 11:00:08;;;;;;;0.10;0.10;;;12.00;75.80;;;;;;6133423;23;20484;-77
2024/02/20 11:02:44;;;;;;;0.10;0.10;;;12.00;75.50;;;;;;6159412;23;20032;-77
2024/02/20 11:05:12;;;;;;;0.10;0.10;;;12.00;75.40;;;;;;6159565;23;20056;-77
2024/02/20 11:07:38;;;;;;;0.10;0.10;;;11.80;75.60;;;;;;6159554;23;20013;-77
2024/02/20 11:10:10;;;;;;;0.10;0.10;;;11.80;76.00;;;;;;6159127;23;20005;-77
2024/02/20 11:12:37;;;;;;;0.10;0.10;;;11.70;76.70;;;;;;6159288;23;20338;-77
2024/02/20 11:15:11;;;;;;;0.20;0.20;;;11.70;76.80;;;;;;6159104;23;20005;-77
2024/02/20 11:17:38;;;;;;;0.10;0.10;;;11.80;76.60;;;;;;6158806;23;20060;-77
2024/02/20 11:20:16;;;;;;;0.10;0.10;;;11.90;76.60;;;;;;6159221;23;20001;-77
2024/02/20 11:22:43;;;;;;;0.10;0.10;;;11.90;76.60;;;;;;6158904;23;20006;-77
2024/02/20 11:25:12;;;;;;;0.10;0.10;;;12.10;76.50;;;;;;6159580;23;20005;-77
2024/02/20 11:27:42;;;;;;;0.10;0.10;;;12.00;75.90;;;;;;6133130;23;20005;-77
2024/02/20 11:30:09;;;;;;;0.10;0.10;;;11.90;76.20;;;;;;6159131;23;20084;-78
2024/02/20 11:32:35;;;;;;;0.10;0.10;;;11.80;76.60;;;;;;6158862;23;20006;-76
2024/02/20 11:35:00;;;;;;;0.10;0.10;;;11.70;76.60;;;;;;6133213;23;20009;-77
2024/02/20 11:37:26;;;;;;;0.10;0.10;;;11.60;77.20;;;;;;6159293;23;20056;-76
2024/02/20 11:39:51;;;;;;;0.10;0.10;;;11.50;77.70;;;;;;6158466;23;20005;-77
2024/02/20 11:42:19;;;;;;;0.10;0.10;;;11.50;78.40;;;;;;6159238;23;20032;-76
2024/02/20 11:44:44;;;;;;;0.10;0.10;;;11.50;78.40;;;;;;6159431;23;20449;-76
2024/02/20 11:47:15;;;;;;;0.10;0.10;;;11.60;78.60;;;;;;6159072;23;20006;-77
2024/02/20 11:49:41;;;;;;;0.10;0.10;;;11.70;78.20;;;;;;6158771;23;20005;-76
2024/02/20 11:52:08;;;;;;;0.10;0.10;;;11.70;78.50;;;;;;6133199;23;20009;-76
2024/02/20 11:54:34;;;;;;;0.10;0.10;;;11.90;78.50;;;;;;6159477;23;20085;-76
2024/02/20 11:57:01;;;;;;;0.10;0.10;;;11.90;78.20;;;;;;6132458;23;20006;-77
2024/02/20 11:59:27;;;;;;;0.10;0.10;;;11.90;77.80;;;;;;6159026;23;19997;-77
2024/02/20 12:01:52;;;;;;;0.10;0.10;;;11.90;78.40;;;;;;6132472;23;20056;-77
2024/02/20 12:04:28;;;;;;;0.10;0.10;;;12.00;78.40;;;;;;6158965;23;20009;-77
2024/02/20 12:06:54;;;;;;;0.10;0.10;;;12.10;78.20;;;;;;6158984;23;20057;-77
2024/02/20 12:09:19;;;;;;;0.20;0.20;;;12.00;78.30;;;;;;6133295;23;20386;-77
2024/02/20 12:11:49;;;;;;;0.10;0.10;;;12.10;78.70;;;;;;6158542;23;20106;-76
2024/02/20 12:14:17;;;;;;;0.10;0.10;;;12.20;78.20;;;;;;6158876;23;20010;-77
2024/02/20 12:16:42;;;;;;;0.10;0.10;;;12.30;78.10;;;;;;6132481;23;20009;-77
2024/02/20 12:19:08;;;;;;;0.10;0.10;;;12.40;78.10;;;;;;6133414;23;20090;-77
2024/02/20 12:21:35;;;;;;;0.10;0.10;;;12.50;77.90;;;;;;6159115;23;20005;-77
2024/02/20 12:24:07;;;;;;;0.10;0.10;;;12.60;77.60;;;;;;6159424;23;19997;-76
2024/02/20 12:26:32;;;;;;;0.10;0.10;;;12.70;77.70;;;;;;6158447;23;20005;-76
2024/02/20 12:28:58;;;;;;;0.10;0.10;;;12.70;77.50;;;;;;6132841;23;20010;-77
2024/02/20 12:31:26;;;;;;;0.10;0.10;;;12.80;77.60;;;;;;6159613;23;20021;-77
2024/02/20 12:33:52;;;;;;;0.10;0.10;;;12.90;77.50;;;;;;6134935;23;20056;-77
2024/02/20 12:36:18;;;;;;;0.10;0.10;;;12.90;77.30;;;;;;6158733;23;20320;-77
2024/02/20 12:38:44;;;;;;;0.10;0.10;;;13.00;77.20;;;;;;6132837;23;20002;-77
2024/02/20 12:41:10;;;;;;;0.10;0.10;;;12.90;77.20;;;;;;6134653;23;20322;-77
2024/02/20 12:43:36;;;;;;;0.10;0.10;;;12.90;77.20;;;;;;6160818;23;20480;-77
2024/02/20 12:46:02;;;;;;;0.10;0.10;;;12.80;77.10;;;;;;6160462;23;19998;-77
2024/02/20 12:48:28;;;;;;;0.10;0.10;;;12.70;77.70;;;;;;6160419;23;20021;-77
2024/02/20 12:50:54;;;;;;;0.10;0.10;;;12.70;77.90;;;;;;6160977;23;20005;-76
2024/02/20 12:53:19;;;;;;;0.10;0.10;;;12.70;78.30;;;;;;6160389;23;20080;-76
2024/02/20 12:55:45;;;;;;;0.10;0.10;;;12.80;78.30;;;;;;6160748;23;20442;-77
2024/02/20 12:58:12;;;;;;;0.10;0.10;;;13.00;77.70;;;;;;6160115;23;20013;-76
2024/02/20 13:00:38;;;;;;;0.10;0.10;;;13.00;77.10;;;;;;6160642;23;20009;-77
2024/02/20 13:03:06;;;;;;;0.10;0.10;;;13.10;77.40;;;;;;6160810;23;19997;-77
2024/02/20 13:05:32;;;;;;;0.10;0.10;;;13.00;77.10;;;;;;6160565;23;19998;-77
2024/02/20 13:08:00;;;;;;;0.10;0.10;;;12.80;77.40;;;;;;6134081;23;20491;-76
2024/02/20 13:10:29;;;;;;;0.10;0.10;;;12.80;77.50;;;;;;6134623;23;20445;-77
2024/02/20 13:12:56;;;;;;;0.10;0.10;;;12.90;77.70;;;;;;6160174;23;20072;-76
2024/02/20 13:15:22;;;;;;;0.10;0.10;;;12.90;77.70;;;;;;6160339;23;20037;-77
2024/02/20 13:17:50;;;;;;;0.10;0.10;;;12.90;77.90;;;;;;6160373;23;20001;-77
2024/02/20 13:20:16;;;;;;;0.10;0.10;;;12.80;77.80;;;;;;6134406;23;20487;-76
2024/02/20 13:22:43;;;;;;;0.10;0.10;;;12.80;78.00;;;;;;6160585;23;20006;-76
2024/02/20 13:25:09;;;;;;;0.10;0.10;;;12.70;78.30;;;;;;6160151;23;20435;-77
2024/02/20 13:27:34;;;;;;;0.10;0.10;;;12.70;78.50;;;;;;6133812;23;20010;-77
2024/02/20 13:30:00;;;;;;;0.10;0.10;;;12.80;78.20;;;;;;6160205;23;20053;-77
2024/02/20 13:32:25;;;;;;;0.10;0.10;;;12.90;78.30;;;;;;6160382;23;20049;-76
2024/02/20 13:34:51;;;;;;;0.10;0.10;;;13.00;77.80;;;;;;6160087;23;20005;-77
2024/02/20 13:37:17;;;;;;;0.10;0.10;;;13.20;77.80;;;;;;6160401;23;20006;-77
2024/02/20 13:39:43;;;;;;;0.10;0.10;;;13.20;77.60;;;;;;6160175;23;20370;-77
2024/02/20 13:42:09;;;;;;;0.10;0.10;;;13.10;77.70;;;;;;6159517;23;20017;-76
2024/02/20 13:44:35;;;;;;;0.10;0.10;;;13.00;77.70;;;;;;6160293;23;20009;-77
2024/02/20 13:47:00;;;;;;;0.10;0.10;;;13.00;77.70;;;;;;6133641;23;20311;-76
2024/02/20 13:49:28;;;;;;;0.10;0.10;;;13.00;77.90;;;;;;6160118;23;20001;-77
2024/02/20 13:51:53;;;;;;;0.10;0.10;;;13.10;78.00;;;;;;6160026;23;20006;-76
2024/02/20 13:54:20;;;;;;;0.10;0.10;;;13.10;77.90;;;;;;6160304;23;20005;-76
2024/02/20 13:56:46;;;;;;;0.10;0.10;;;13.20;78.00;;;;;;6159696;23;20074;-76
2024/02/20 13:59:12;;;;;;;0.10;0.10;;;13.20;77.90;;;;;;6160465;23;20002;-77
2024/02/20 14:01:39;;;;;;;0.10;0.10;;;13.10;78.00;;;;;;6159569;23;20059;-77
2024/02/20 14:04:05;;;;;;;0.10;0.10;;;13.10;78.20;;;;;;6159916;23;20006;-77
2024/02/20 14:06:34;;;;;;;0.10;0.10;;;13.00;78.10;;;;;;6160286;23;20012;-77
2024/02/20 14:09:03;;;;;;;0.10;0.10;;;13.00;78.50;;;;;;6159523;23;20012;-77
2024/02/20 14:11:32;;;;;;;0.10;0.10;;;13.00;78.40;;;;;;6160045;23;20342;-76
2024/02/20 14:13:58;;;;;;;0.10;0.10;;;13.00;78.70;;;;;;6159193;23;20044;-77
2024/02/20 14:16:25;;;;;;;0.10;0.10;;;13.00;78.90;;;;;;6159776;23;20076;-77
2024/02/20 14:18:51;;;;;;;0.10;0.10;;;13.00;78.90;;;;;;6160016;23;20052;-76
2024/02/20 14:21:17;;;;;;;0.10;0.10;;;13.00;78.80;;;;;;6159586;23;20005;-76
2024/02/20 14:23:42;;;;;;;0.10;0.10;;;12.90;79.00;;;;;;6159682;23;20001;-77
2024/02/20 14:26:09;;;;;;;0.10;0.10;;;12.80;79.20;;;;;;6159832;23;20002;-77
2024/02/20 14:28:38;;;;;;;0.10;0.10;;;12.80;79.60;;;;;;6159830;23;20013;-76
2024/02/20 14:31:09;;;;;;;0.10;0.10;;;12.80;79.80;;;;;;6140573;23;20480;-76
2024/02/20 14:33:35;;;;;;;0.10;0.10;;;12.80;80.00;;;;;;6159526;23;19997;-76
2024/02/20 14:36:01;;;;;;;0.10;0.10;;;12.80;80.10;;;;;;6158537;23;20383;-77
2024/02/20 14:38:27;;;;;;;0.10;0.10;;;12.80;80.10;;;;;;6158558;23;20032;-76
2024/02/20 14:40:53;;;;;;;0.10;0.10;;;12.80;80.40;;;;;;6158475;23;20001;-76
2024/02/20 14:43:19;;;;;;;0.10;0.10;;;12.80;80.60;;;;;;6157596;23;20062;-77
2024/02/20 14:45:49;;;;;;;0.10;0.10;;;12.70;81.00;;;;;;6158627;23;20525;-76
2024/02/20 14:48:16;;;;;;;0.10;0.10;;;12.70;81.10;;;;;;6159419;23;20457;-76
2024/02/20 14:50:42;;;;;;;0.10;0.10;;;12.70;81.20;;;;;;6158052;23;20016;-76
2024/02/20 14:53:08;;;;;;;0.10;0.10;;;12.70;81.60;;;;;;6159200;23;20005;-76
2024/02/20 14:55:34;;;;;;;0.10;0.10;;;12.70;81.80;;;;;;6158178;23;20449;-79
2024/02/20 14:58:03;;;;;;;0.10;0.10;;;12.80;81.90;;;;;;6159549;23;20001;-78
2024/02/20 15:00:30;;;;;;;0.10;0.10;;;12.80;82.20;;;;;;6158642;23;19998;-77
2024/02/20 15:02:56;;;;;;;0.10;0.10;;;12.80;82.20;;;;;;6157155;23;20085;-76
2024/02/20 15:05:21;;;;;;;0.10;0.10;;;12.80;82.30;;;;;;6159139;23;20315;-77
2024/02/20 15:07:47;;;;;;;0.10;0.10;;;12.80;82.50;;;;;;6159437;23;20019;-77
2024/02/20 15:10:13;;;;;;;0.10;0.10;;;12.70;82.70;;;;;;6159105;23;20006;-77
2024/02/20 15:12:39;;;;;;;0.10;0.10;;;12.60;83.20;;;;;;6157562;23;20097;-77
2024/02/20 15:15:06;;;;;;;0.10;0.10;;;12.50;83.50;;;;;;6159056;23;20410;-77
2024/02/20 15:17:32;;;;;;;0.10;0.10;;;12.50;83.80;;;;;;6159045;23;20088;-77
2024/02/20 15:20:03;;;;;;;0.10;0.10;;;12.50;83.90;;;;;;6158064;23;20002;-77
2024/02/20 15:22:29;;;;;;;0.10;0.10;;;12.50;83.90;;;;;;6158798;23;20001;-77
2024/02/20 15:24:57;;;;;;;0.10;0.10;;;12.40;84.20;;;;;;6157738;23;20052;-77
2024/02/20 15:27:26;;;;;;;0.10;0.10;;;12.30;84.30;;;;;;6157691;23;20029;-77
2024/02/20 15:29:52;;;;;;;0.10;0.10;;;12.30;84.60;;;;;;6158814;23;20002;-77
2024/02/20 15:32:18;;;;;;;0.10;0.10;;;12.30;84.60;;;;;;6159155;23;20018;-77
2024/02/20 15:34:44;;;;;;;0.10;0.10;;;12.20;84.80;;;;;;6159005;23;20088;-77
2024/02/20 15:37:10;;;;;;;0.10;0.10;;;12.30;84.90;;;;;;6158856;23;20430;-77
2024/02/20 15:39:36;;;;;;;0.10;0.10;;;12.30;84.70;;;;;;6158661;23;20064;-77
2024/02/20 15:42:03;;;;;;;0.10;0.10;;;12.20;84.50;;;;;;6159132;23;19997;-77
2024/02/20 15:44:29;;;;;;;0.10;0.10;;;12.30;84.70;;;;;;6157936;23;20005;-77
2024/02/20 15:46:56;;;;;;;0.10;0.10;;;12.30;84.60;;;;;;6158990;23;20032;-77
2024/02/20 15:49:24;;;;;;;0.10;0.10;;;12.40;84.50;;;;;;6132519;23;20770;-77
2024/02/20 15:51:50;;;;;;;0.10;0.10;;;12.50;84.30;;;;;;6132657;23;20006;-77
2024/02/20 15:54:16;;;;;;;0.10;0.10;;;12.50;84.10;;;;;;6157248;23;20001;-77
2024/02/20 15:56:44;;;;;;;0.10;0.10;;;12.50;84.10;;;;;;6158876;23;20005;-77
2024/02/20 15:59:10;;;;;;;0.10;0.10;;;12.50;83.60;;;;;;6132778;23;20006;-77
2024/02/20 16:01:36;;;;;;;0.10;0.10;;;12.50;83.60;;;;;;6132966;23;20450;-77
2024/02/20 16:04:02;;;;;;;0.10;0.10;;;12.50;83.70;;;;;;6158409;23;20064;-77
2024/02/20 16:06:30;;;;;;;0.10;0.10;;;12.60;83.70;;;;;;6134919;23;20002;-77
2024/02/20 16:08:56;;;;;;;0.10;0.10;;;12.60;83.50;;;;;;6161131;23;20005;-77
2024/02/20 16:11:22;;;;;;;0.10;0.10;;;12.60;83.40;;;;;;6134502;23;20006;-77
2024/02/20 16:13:49;;;;;;;0.10;0.10;;;12.60;83.50;;;;;;6160242;23;20013;-77
2024/02/20 16:16:15;;;;;;;0.10;0.10;;;12.60;83.40;;;;;;6160419;23;20009;-76
2024/02/20 16:18:42;;;;;;;0.10;0.10;;;12.70;83.40;;;;;;6159513;23;20072;-77
2024/02/20 16:21:08;;;;;;;0.10;0.10;;;12.60;83.10;;;;;;6160371;23;20029;-77
2024/02/20 16:23:34;;;;;;;0.10;0.10;;;12.50;83.20;;;;;;6160899;23;20005;-77
2024/02/20 16:26:00;;;;;;;0.10;0.10;;;12.50;83.30;;;;;;6159140;23;20005;-77
2024/02/20 16:28:26;;;;;;;0.00;0.00;;;12.50;83.40;;;;;;6160760;23;20005;-77
2024/02/20 16:30:52;;;;;;;0.10;0.10;;;12.40;83.60;;;;;;6160374;23;20076;-77
2024/02/20 16:33:17;;;;;;;0.00;0.00;;;12.40;83.70;;;;;;6160876;23;20033;-77
2024/02/20 16:35:43;;;;;;;0.10;0.10;;;12.40;83.70;;;;;;6134425;23;20006;-77
2024/02/20 16:38:09;;;;;;;0.10;0.10;;;12.30;83.50;;;;;;6160380;23;20461;-77
2024/02/20 16:40:34;;;;;;;0.10;0.10;;;12.30;84.00;;;;;;6134937;23;20005;-77
2024/02/20 16:43:01;;;;;;;0.10;0.10;;;12.30;83.90;;;;;;6160283;23;20002;-77
2024/02/20 16:45:31;;;;;;;0.10;0.10;;;12.30;83.90;;;;;;6134176;23;20299;-77
2024/02/20 16:47:57;;;;;;;0.10;0.10;;;12.30;84.00;;;;;;6133679;23;20040;-77
2024/02/20 16:50:24;;;;;;;0.00;0.00;;;12.20;84.30;;;;;;6160452;23;20346;-77
2024/02/20 16:52:50;;;;;;;0.10;0.10;;;12.20;84.30;;;;;;6160404;23;20077;-77
2024/02/20 16:55:16;;;;;;;0.10;0.10;;;12.20;84.40;;;;;;6132902;23;20010;-77
2024/02/20 16:57:42;;;;;;;0.10;0.10;;;12.20;84.20;;;;;;6159599;23;20009;-77
2024/02/20 17:00:09;;;;;;;0.10;0.10;;;12.20;84.10;;;;;;6160231;23;20002;-77
2024/02/20 17:02:34;;;;;;;0.10;0.10;;;12.20;84.20;;;;;;6159951;23;20029;-77
2024/02/20 17:05:13;;;;;;;0.10;0.10;;;12.30;84.10;;;;;;6160327;23;20032;-77
2024/02/20 17:07:41;;;;;;;0.10;0.10;;;12.30;84.00;;;;;;6160479;23;20009;-76
2024/02/20 17:10:07;;;;;;;0.10;0.10;;;12.30;84.00;;;;;;6159073;23;20001;-76
2024/02/20 17:12:33;;;;;;;0.03;0.03;;;12.30;83.90;;;;;;6159802;23;20001;-76
2024/02/20 17:15:01;;;;;;;0.10;0.10;;;12.20;83.90;;;;;;6133943;23;20576;-76
2024/02/20 17:17:27;;;;;;;0.10;0.10;;;12.20;83.90;;;;;;6131427;23;20064;-76
2024/02/20 17:19:55;;;;;;;0.10;0.10;;;12.10;83.80;;;;;;6142103;23;20002;-76
2024/02/20 17:22:22;;;;;;;0.10;0.10;;;12.10;83.80;;;;;;6133212;23;20006;-77
2024/02/20 17:24:47;;;;;;;0.10;0.10;;;12.20;83.90;;;;;;6158893;23;20009;-77
2024/02/20 17:27:13;;;;;;;0.10;0.10;;;12.20;83.80;;;;;;6159613;23;20028;-76
2024/02/20 17:29:39;;;;;;;0.10;0.10;;;12.20;83.80;;;;;;6159198;23;20019;-76
2024/02/20 17:32:05;;;;;;;0.10;0.10;;;12.20;83.90;;;;;;6144468;23;20092;-77
2024/02/20 17:34:31;;;;;;;0.10;0.10;;;12.20;83.90;;;;;;6158365;23;20060;-77
2024/02/20 17:37:00;;;;;;;0.10;0.10;;;12.20;83.90;;;;;;6158214;23;20011;-76
2024/02/20 17:39:26;;;;;;;0.10;0.10;;;12.10;84.20;;;;;;6157330;23;20029;-76
2024/02/20 17:41:52;;;;;;;0.10;0.10;;;12.00;84.30;;;;;;6156910;23;20005;-77
2024/02/20 17:44:17;;;;;;;0.10;0.10;;;11.90;84.50;;;;;;6159627;23;20002;-76
2024/02/20 17:46:43;;;;;;;0.08;0.08;;;11.90;84.30;;;;;;6158391;23;20009;-76
2024/02/20 17:49:09;;;;;;;0.10;0.10;;;11.90;84.20;;;;;;6157967;23;20380;-85
2024/02/20 17:51:35;;;;;;;0.00;0.00;;;11.90;84.00;;;;;;6157993;23;20341;-85
2024/02/20 17:54:01;;;;;;;0.10;0.10;;;12.00;84.00;;;;;;6158353;23;20010;-83
2024/02/20 17:56:27;;;;;;;0.10;0.10;;;11.90;83.80;;;;;;6159736;23;20099;-83
2024/02/20 17:58:52;;;;;;;0.10;0.10;;;11.90;83.80;;;;;;6159007;23;20001;-83
2024/02/20 18:01:20;;;;;;;0.10;0.10;;;11.90;83.80;;;;;;6159170;23;20033;-83
2024/02/20 18:03:45;;;;;;;0.10;0.10;;;11.90;83.60;;;;;;6159710;23;20036;-83
2024/02/20 18:06:11;;;;;;;0.08;0.08;;;11.80;83.60;;;;;;6157864;23;20001;-82
2024/02/20 18:08:37;;;;;;;0.10;0.10;;;11.80;83.70;;;;;;6159083;23;20002;-83
2024/02/20 18:11:03;;;;;;;0.10;0.10;;;11.80;83.60;;;;;;6159024;23;20001;-83
2024/02/20 18:13:29;;;;;;;0.10;0.10;;;11.80;83.30;;;;;;6158786;23;20521;-83
2024/02/20 18:15:55;;;;;;;0.10;0.10;;;11.80;83.40;;;;;;6159467;23;20064;-83